Time;durP1;ratioP1;P1;durP2;ratioP2;P2;SDS_P1;SDS_P2;PMS_P1;PMS_P2;Temp;Humidity;BMP_temperature;BMP_pressure;BME280_temperature;BME280_humidity;BME280_pressure;Samples;Min_cycle;Max_cycle;Signal;HPM_P1;HPM_P2
2022/03/27 00:01:46;;;;;;;50.67;25.20;;;;;;;-141.50;100.00;63355.56;5110860;28;20453;-79
2022/03/27 00:04:13;;;;;;;50.05;24.85;;;;;;;-141.50;100.00;63355.56;5111568;28;20050;-77
2022/03/27 00:06:39;;;;;;;53.38;26.25;;;;;;;-141.50;100.00;63355.56;5110452;28;20112;-78
2022/03/27 00:09:06;;;;;;;51.70;24.75;;;;;;;-141.50;100.00;63355.56;5095065;28;20505;-77
2022/03/27 00:11:33;;;;;;;48.95;23.98;;;;;;;-141.50;100.00;63355.56;5112738;28;20474;-78
2022/03/27 00:14:05;;;;;;;48.60;23.52;;;;;;;-141.50;100.00;63355.56;5090778;28;20050;-81
2022/03/27 00:16:33;;;;;;;46.75;22.75;;;;;;;-141.50;100.00;63355.56;5095593;28;20094;-78
2022/03/27 00:19:00;;;;;;;44.25;22.20;;;;;;;-141.50;100.00;63355.56;5090334;28;20071;-77
2022/03/27 00:21:27;;;;;;;41.13;21.95;;;;;;;-141.50;100.00;63355.56;5089433;28;20101;-78
2022/03/27 00:23:54;;;;;;;40.00;20.60;;;;;;;-141.50;100.00;63355.56;5090455;28;20112;-79
2022/03/27 00:26:21;;;;;;;39.92;20.27;;;;;;;-141.50;100.00;63355.56;5089332;28;20512;-77
2022/03/27 00:28:49;;;;;;;40.17;21.20;;;;;;;-141.50;100.00;63355.56;5089345;28;20091;-78
2022/03/27 00:31:16;;;;;;;40.67;21.52;;;;;;;-141.50;100.00;63355.56;5087348;28;20147;-81
2022/03/27 00:33:44;;;;;;;43.58;21.38;;;;;;;-141.50;100.00;63355.56;5089143;28;20056;-79
2022/03/27 00:36:13;;;;;;;41.08;21.23;;;;;;;-141.50;100.00;63355.56;5090035;28;20052;-79
2022/03/27 00:38:41;;;;;;;39.90;20.60;;;;;;;-141.50;100.00;63355.56;5090370;28;20055;-79
2022/03/27 00:41:08;;;;;;;32.38;17.48;;;;;;;-141.50;100.00;63355.56;5088071;28;20080;-79
2022/03/27 00:43:36;;;;;;;35.97;18.85;;;;;;;-141.50;100.00;63355.56;5088502;28;20056;-79
2022/03/27 00:46:03;;;;;;;34.45;18.85;;;;;;;-141.50;100.00;63355.56;5088604;28;20076;-79
2022/03/27 00:48:34;;;;;;;38.30;18.05;;;;;;;-141.50;100.00;63355.56;5088743;28;20071;-77
2022/03/27 00:51:01;;;;;;;34.35;18.48;;;;;;;-141.50;100.00;63355.56;5088452;28;20048;-78
2022/03/27 00:53:27;;;;;;;39.60;18.88;;;;;;;-141.50;100.00;63355.56;5090603;28;20063;-77
2022/03/27 00:55:54;;;;;;;35.88;19.00;;;;;;;-141.50;100.00;63355.56;5091190;28;20079;-80
2022/03/27 00:58:20;;;;;;;36.83;18.30;;;;;;;-141.50;100.00;63355.56;5090613;28;20113;-79
2022/03/27 01:00:47;;;;;;;36.60;19.02;;;;;;;-141.50;100.00;63355.56;5090889;28;20213;-77
2022/03/27 01:03:17;;;;;;;35.40;18.13;;;;;;;-141.50;100.00;63355.56;5090552;28;20634;-79
2022/03/27 01:05:45;;;;;;;37.80;18.75;;;;;;;-141.50;100.00;63355.56;5089766;28;20089;-79
2022/03/27 01:08:15;;;;;;;38.95;18.55;;;;;;;-141.50;100.00;63355.56;5091305;28;20071;-78
2022/03/27 01:10:43;;;;;;;36.22;19.42;;;;;;;-141.50;100.00;63355.56;5087995;28;20055;-79
2022/03/27 01:13:20;;;;;;;33.53;17.90;;;;;;;-141.50;100.00;63355.56;5090072;28;20075;-80
2022/03/27 01:15:53;;;;;;;35.25;18.70;;;;;;;-141.50;100.00;63355.56;5082540;28;20492;-80
2022/03/27 01:18:21;;;;;;;35.15;18.52;;;;;;;-141.50;100.00;63355.56;5110304;28;20048;-79
2022/03/27 01:20:48;;;;;;;38.92;19.67;;;;;;;-141.50;100.00;63355.56;5107622;28;20055;-78
2022/03/27 01:23:15;;;;;;;36.95;19.13;;;;;;;-141.50;100.00;63355.56;5109135;28;20209;-79
2022/03/27 01:25:44;;;;;;;35.30;18.95;;;;;;;-141.50;100.00;63355.56;5109000;28;20444;-78
2022/03/27 01:28:14;;;;;;;33.75;19.15;;;;;;;-141.50;100.00;63355.56;5091878;28;20062;-78
2022/03/27 01:30:41;;;;;;;36.53;19.05;;;;;;;-141.50;100.00;63355.56;5108108;28;20109;-78
2022/03/27 01:33:10;;;;;;;34.72;19.52;;;;;;;-141.50;100.00;63355.56;5108782;28;20066;-80
2022/03/27 01:35:38;;;;;;;45.97;20.35;;;;;;;-141.50;100.00;63355.56;5109639;28;20044;-78
2022/03/27 01:38:04;;;;;;;37.85;19.38;;;;;;;-141.50;100.00;63355.56;5110891;28;20071;-77
2022/03/27 01:40:31;;;;;;;38.67;20.13;;;;;;;-141.50;100.00;63355.56;5091358;28;20082;-79
2022/03/27 01:42:57;;;;;;;42.97;19.83;;;;;;;-141.50;100.00;63355.56;5109360;28;20079;-79
2022/03/27 01:45:24;;;;;;;40.63;21.67;;;;;;;-141.50;100.00;63355.56;5108631;28;20052;-79
2022/03/27 01:47:51;;;;;;;36.55;20.35;;;;;;;-141.50;100.00;63355.56;5109167;28;20464;-79
2022/03/27 01:50:18;;;;;;;40.00;21.05;;;;;;;-141.50;100.00;63355.56;5109946;28;20565;-80
2022/03/27 01:52:45;;;;;;;39.65;20.30;;;;;;;-141.50;100.00;63355.56;5110099;28;20116;-78
2022/03/27 01:55:16;;;;;;;40.40;20.65;;;;;;;-141.50;100.00;63355.56;5110699;28;20043;-78
2022/03/27 01:57:44;;;;;;;38.72;20.42;;;;;;;-141.50;100.00;63355.56;5109833;28;20047;-78
2022/03/27 02:00:12;;;;;;;34.67;18.98;;;;;;;-141.50;100.00;63355.56;5111330;28;20047;-78
2022/03/27 02:02:39;;;;;;;41.92;21.63;;;;;;;-141.50;100.00;63355.56;5112766;28;20134;-79
2022/03/27 02:05:06;;;;;;;36.83;19.58;;;;;;;-141.50;100.00;63355.56;5114840;28;20055;-80
2022/03/27 02:07:37;;;;;;;41.92;19.65;;;;;;;-141.50;100.00;63355.56;5125294;28;20079;-78
2022/03/27 02:10:05;;;;;;;38.10;19.40;;;;;;;-141.50;100.00;63355.56;5102573;28;20146;-78
2022/03/27 02:12:35;;;;;;;37.55;19.63;;;;;;;-141.50;100.00;63355.56;5109900;28;20480;-80
2022/03/27 02:15:08;;;;;;;41.50;20.75;;;;;;;-141.50;100.00;63355.56;5102652;28;20040;-80
2022/03/27 02:17:38;;;;;;;40.35;21.15;;;;;;;-141.50;100.00;63355.56;5115523;28;20048;-80
2022/03/27 02:20:09;;;;;;;41.25;20.55;;;;;;;-141.50;100.00;63355.56;5113192;28;20097;-78
2022/03/27 02:22:36;;;;;;;39.50;20.38;;;;;;;-141.50;100.00;63355.56;5093999;28;20134;-79
2022/03/27 02:25:04;;;;;;;44.20;21.40;;;;;;;-141.50;100.00;63355.56;5112726;28;20048;-79
2022/03/27 02:27:30;;;;;;;40.42;20.73;;;;;;;-141.50;100.00;63355.56;5129023;28;20082;-79
2022/03/27 02:29:57;;;;;;;40.42;21.13;;;;;;;-141.50;100.00;63355.56;5136381;28;20047;-78
2022/03/27 02:32:24;;;;;;;42.75;21.35;;;;;;;-141.50;100.00;63355.56;5125508;28;20047;-79
2022/03/27 02:34:50;;;;;;;44.15;22.13;;;;;;;-141.50;100.00;63355.56;5113709;28;20097;-76
2022/03/27 02:37:17;;;;;;;42.47;20.80;;;;;;;-141.50;100.00;63355.56;5113512;28;20052;-78
2022/03/27 02:39:44;;;;;;;42.20;21.20;;;;;;;-141.50;100.00;63355.56;5113283;28;20418;-79
2022/03/27 02:42:11;;;;;;;45.13;22.02;;;;;;;-141.50;100.00;63355.56;5112283;28;20101;-77
2022/03/27 02:44:37;;;;;;;48.85;22.40;;;;;;;-141.50;100.00;63355.56;5112239;28;20044;-78
2022/03/27 02:47:05;;;;;;;45.22;22.27;;;;;;;-141.50;100.00;63355.56;5112522;28;20051;-77
2022/03/27 02:49:32;;;;;;;43.33;21.33;;;;;;;-141.50;100.00;63355.56;5112975;28;20043;-79
2022/03/27 02:51:58;;;;;;;43.03;21.25;;;;;;;-141.50;100.00;63355.56;5113145;28;20047;-77
2022/03/27 02:54:26;;;;;;;45.88;22.85;;;;;;;-141.50;100.00;63355.56;5112558;28;20055;-78
2022/03/27 02:56:52;;;;;;;47.95;22.77;;;;;;;-141.50;100.00;63355.56;5112165;28;20147;-77
2022/03/27 02:59:19;;;;;;;44.80;22.52;;;;;;;-141.50;100.00;63355.56;5111427;28;20083;-79
2022/03/27 03:01:49;;;;;;;48.88;24.15;;;;;;;-141.50;100.00;63355.56;5109905;28;20047;-77
2022/03/27 03:04:16;;;;;;;51.13;24.58;;;;;;;-141.50;100.00;63355.56;5113242;28;20051;-80
2022/03/27 03:06:43;;;;;;;47.97;23.65;;;;;;;-141.50;100.00;63355.56;5112796;28;20052;-76
2022/03/27 03:09:10;;;;;;;47.40;23.25;;;;;;;-141.50;100.00;63355.56;5113310;28;20073;-79
2022/03/27 03:11:37;;;;;;;57.95;26.17;;;;;;;-141.50;100.00;63355.56;5091891;28;20097;-78
2022/03/27 03:14:03;;;;;;;60.38;25.40;;;;;;;-141.50;100.00;63355.56;5102195;28;20060;-79
2022/03/27 03:16:50;;;;;;;52.30;25.50;;;;;;;-141.50;100.00;63355.56;5106036;28;20048;-78
2022/03/27 03:19:17;;;;;;;62.95;26.98;;;;;;;-141.50;100.00;63355.56;5111519;28;20146;-77
2022/03/27 03:21:43;;;;;;;61.75;26.80;;;;;;;-141.50;100.00;63355.56;5110539;28;20048;-78
2022/03/27 03:24:11;;;;;;;65.00;27.23;;;;;;;-141.50;100.00;63355.56;5111517;28;20074;-79
2022/03/27 03:26:37;;;;;;;59.65;27.48;;;;;;;-141.50;100.00;63355.56;5111299;28;20471;-79
2022/03/27 03:29:04;;;;;;;65.78;29.15;;;;;;;-141.50;100.00;63355.56;5110780;28;20066;-78
2022/03/27 03:31:30;;;;;;;67.38;28.10;;;;;;;-141.50;100.00;63355.56;5109636;28;20077;-78
2022/03/27 03:33:57;;;;;;;58.10;26.55;;;;;;;-141.50;100.00;63355.56;5111101;28;20138;-77
2022/03/27 03:36:24;;;;;;;64.15;28.30;;;;;;;-141.50;100.00;63355.56;5112393;28;20143;-78
2022/03/27 03:38:51;;;;;;;61.97;27.27;;;;;;;-141.50;100.00;63355.56;5114538;28;20097;-77
2022/03/27 03:41:18;;;;;;;71.50;27.88;;;;;;;-141.50;100.00;63355.56;5109915;28;20450;-78
2022/03/27 03:43:46;;;;;;;62.83;26.92;;;;;;;-141.50;100.00;63355.56;5110825;28;20078;-77
2022/03/27 03:46:12;;;;;;;60.47;28.45;;;;;;;-141.50;100.00;63355.56;5110203;28;20090;-79
2022/03/27 03:48:40;;;;;;;67.22;28.48;;;;;;;-141.50;100.00;63355.56;5093023;28;20051;-80
2022/03/27 03:51:07;;;;;;;66.57;29.02;;;;;;;-141.50;100.00;63355.56;5110868;28;20112;-77
2022/03/27 03:53:33;;;;;;;65.30;28.42;;;;;;;-141.50;100.00;63355.56;5112029;28;20127;-79
2022/03/27 03:55:59;;;;;;;68.13;29.40;;;;;;;-141.50;100.00;63355.56;5112117;28;20071;-78
2022/03/27 03:58:26;;;;;;;63.17;28.35;;;;;;;-141.50;100.00;63355.56;5112468;28;20098;-78
2022/03/27 04:00:52;;;;;;;59.78;25.35;;;;;;;-141.50;100.00;63355.56;5112901;28;20047;-77
2022/03/27 04:03:19;;;;;;;64.45;28.75;;;;;;;-141.50;100.00;63355.56;5113313;28;20047;-80
2022/03/27 04:05:46;;;;;;;61.10;26.20;;;;;;;-141.50;100.00;63355.56;5114349;28;20060;-79
2022/03/27 04:08:14;;;;;;;67.63;27.67;;;;;;;-141.50;100.00;63355.56;5113764;28;20104;-78
2022/03/27 04:10:42;;;;;;;58.00;26.45;;;;;;;-141.50;100.00;63355.56;5097499;28;20069;-77
2022/03/27 04:13:11;;;;;;;67.78;26.63;;;;;;;-141.50;100.00;63355.56;5109887;28;20444;-78
2022/03/27 04:15:38;;;;;;;59.22;26.30;;;;;;;-141.50;100.00;63355.56;5107309;28;20048;-80
2022/03/27 04:18:20;;;;;;;64.68;27.48;;;;;;;-141.50;100.00;63355.56;5092464;28;20135;-79
2022/03/27 04:20:47;;;;;;;68.82;29.05;;;;;;;-141.50;100.00;63355.56;5091122;28;20093;-77
2022/03/27 04:23:14;;;;;;;62.10;27.27;;;;;;;-141.50;100.00;63355.56;5092269;28;20140;-78
2022/03/27 04:25:40;;;;;;;67.43;25.48;;;;;;;-141.50;100.00;63355.56;5106374;28;20040;-78
2022/03/27 04:28:08;;;;;;;53.67;25.20;;;;;;;-141.50;100.00;63355.56;5110032;28;20044;-78
2022/03/27 04:30:37;;;;;;;58.00;25.65;;;;;;;-141.50;100.00;63355.56;5112830;28;20044;-77
2022/03/27 04:33:04;;;;;;;59.22;26.10;;;;;;;-141.50;100.00;63355.56;5114055;28;20050;-77
2022/03/27 04:35:31;;;;;;;64.57;26.05;;;;;;;-141.50;100.00;63355.56;5112515;28;20066;-78
2022/03/27 04:37:58;;;;;;;54.45;24.83;;;;;;;-141.50;100.00;63355.56;5092392;28;20139;-78
2022/03/27 04:40:24;;;;;;;56.22;24.52;;;;;;;-141.50;100.00;63355.56;5090511;28;20076;-78
2022/03/27 04:42:51;;;;;;;63.17;25.90;;;;;;;-141.50;100.00;63355.56;5090241;28;20515;-78
2022/03/27 04:45:17;;;;;;;65.75;26.83;;;;;;;-141.50;100.00;63355.56;5090481;28;20080;-78
2022/03/27 04:47:44;;;;;;;72.18;25.85;;;;;;;-141.50;100.00;63355.56;5091498;28;20079;-81
2022/03/27 04:50:10;;;;;;;67.30;25.85;;;;;;;-141.50;100.00;63355.56;5090839;28;20094;-76
2022/03/27 04:52:37;;;;;;;65.95;24.58;;;;;;;-141.50;100.00;63355.56;5089244;28;20109;-78
2022/03/27 04:55:05;;;;;;;61.75;24.73;;;;;;;-141.50;100.00;63355.56;5090672;28;20044;-78
2022/03/27 04:57:38;;;;;;;49.53;22.92;;;;;;;-141.50;100.00;63355.56;5089300;28;20051;-78
2022/03/27 05:00:14;;;;;;;64.00;25.23;;;;;;;-141.50;100.00;63355.56;5090532;28;20578;-79
2022/03/27 05:02:42;;;;;;;158.68;44.00;;;;;;;-141.50;100.00;63355.56;5089670;28;20063;-77
2022/03/27 05:05:11;;;;;;;117.43;32.88;;;;;;;-141.50;100.00;63355.56;5089476;28;20637;-76
2022/03/27 05:07:40;;;;;;;49.67;23.10;;;;;;;-141.50;100.00;63355.56;5090311;28;20072;-77
2022/03/27 05:10:08;;;;;;;60.22;25.10;;;;;;;-141.50;100.00;63355.56;5090296;28;20048;-78
2022/03/27 05:12:34;;;;;;;62.30;25.35;;;;;;;-141.50;100.00;63355.56;5089188;28;20125;-78
2022/03/27 05:15:02;;;;;;;59.92;25.83;;;;;;;-141.50;100.00;63355.56;5095276;28;20082;-77
2022/03/27 05:17:29;;;;;;;53.28;24.50;;;;;;;-141.50;100.00;63355.56;5088500;28;20051;-77
2022/03/27 05:19:55;;;;;;;53.20;24.45;;;;;;;-141.50;100.00;63355.56;5090259;28;20527;-78
2022/03/27 05:22:22;;;;;;;51.80;23.73;;;;;;;-141.50;100.00;63355.56;5089430;28;20062;-77
2022/03/27 05:24:49;;;;;;;49.88;24.50;;;;;;;-141.50;100.00;63355.56;5089589;28;20139;-78
2022/03/27 05:27:19;;;;;;;49.17;23.73;;;;;;;-141.50;100.00;63355.56;5089003;28;20192;-78
2022/03/27 05:29:46;;;;;;;49.38;22.88;;;;;;;-141.50;100.00;63355.56;5087529;28;20060;-78
2022/03/27 05:32:13;;;;;;;243.10;54.97;;;;;;;-141.50;100.00;63355.56;5087301;28;20113;-78
2022/03/27 05:34:40;;;;;;;224.13;52.25;;;;;;;-141.50;100.00;63355.56;5088640;28;20101;-78
2022/03/27 05:37:07;;;;;;;306.38;63.00;;;;;;;-141.50;100.00;63355.56;5089588;28;20052;-78
2022/03/27 05:39:34;;;;;;;234.60;52.60;;;;;;;-141.50;100.00;63355.56;5089573;28;20047;-77
2022/03/27 05:42:00;;;;;;;135.68;37.28;;;;;;;-141.50;100.00;63355.56;5087346;28;20276;-79
2022/03/27 05:44:27;;;;;;;70.82;24.70;;;;;;;-141.50;100.00;63355.56;5088512;28;20052;-78
2022/03/27 05:46:54;;;;;;;96.07;29.77;;;;;;;-141.50;100.00;63355.56;5088499;28;20047;-80
2022/03/27 05:49:20;;;;;;;100.82;30.83;;;;;;;-141.50;100.00;63355.56;5089366;28;20139;-78
2022/03/27 05:51:47;;;;;;;44.13;22.75;;;;;;;-141.50;100.00;63355.56;5090378;28;20079;-77
2022/03/27 05:54:14;;;;;;;53.78;22.80;;;;;;;-141.50;100.00;63355.56;5110981;28;20052;-80
2022/03/27 05:56:40;;;;;;;59.80;24.90;;;;;;;-141.50;100.00;63355.56;5109543;28;20044;-79
2022/03/27 05:59:07;;;;;;;65.22;24.77;;;;;;;-141.50;100.00;63355.56;5094118;28;20494;-78
2022/03/27 06:01:33;;;;;;;54.72;23.63;;;;;;;-141.50;100.00;63355.56;5090231;28;20072;-79
2022/03/27 06:04:00;;;;;;;59.00;22.80;;;;;;;-141.50;100.00;63355.56;5091031;28;20470;-78
2022/03/27 06:06:29;;;;;;;57.38;23.30;;;;;;;-141.50;100.00;63355.56;5090885;28;20079;-78
2022/03/27 06:08:57;;;;;;;65.13;26.40;;;;;;;-141.50;100.00;63355.56;5089392;28;20109;-78
2022/03/27 06:11:24;;;;;;;51.50;24.10;;;;;;;-141.50;100.00;63355.56;5087721;28;20438;-79
2022/03/27 06:13:51;;;;;;;54.60;26.65;;;;;;;-141.50;100.00;63355.56;5089032;28;20126;-77
2022/03/27 06:16:18;;;;;;;57.55;26.20;;;;;;;-141.50;100.00;63355.56;5107292;28;20569;-79
2022/03/27 06:18:44;;;;;;;57.80;24.67;;;;;;;-141.50;100.00;63355.56;5110183;28;20047;-77
2022/03/27 06:21:11;;;;;;;52.40;24.55;;;;;;;-141.50;100.00;63355.56;5110580;28;20559;-80
2022/03/27 06:23:37;;;;;;;44.10;21.75;;;;;;;-141.50;100.00;63355.56;5090989;28;20055;-80
2022/03/27 06:26:04;;;;;;;48.65;23.95;;;;;;;-141.50;100.00;63355.56;5109124;28;20051;-78
2022/03/27 06:28:31;;;;;;;44.80;22.80;;;;;;;-141.50;100.00;63355.56;5111284;28;20478;-78
2022/03/27 06:30:58;;;;;;;46.08;22.70;;;;;;;-141.50;100.00;63355.56;5090137;28;20052;-75
2022/03/27 06:33:24;;;;;;;46.70;23.63;;;;;;;-141.50;100.00;63355.56;5108356;28;20124;-79
2022/03/27 06:35:51;;;;;;;46.47;22.67;;;;;;;-141.50;100.00;63355.56;5095942;28;20127;-77
2022/03/27 06:38:18;;;;;;;50.03;23.58;;;;;;;-141.50;100.00;63355.56;5066829;28;20571;-77
2022/03/27 06:40:45;;;;;;;49.63;22.60;;;;;;;-141.50;100.00;63355.56;5096382;28;20047;-78
2022/03/27 06:43:12;;;;;;;41.92;21.73;;;;;;;-141.50;100.00;63355.56;5104886;28;20051;-77
2022/03/27 06:45:39;;;;;;;40.47;20.75;;;;;;;-141.50;100.00;63355.56;5092474;28;20051;-76
2022/03/27 06:48:05;;;;;;;41.92;22.33;;;;;;;-141.50;100.00;63355.56;5094041;28;20133;-76
2022/03/27 06:50:32;;;;;;;44.53;20.75;;;;;;;-141.50;100.00;63355.56;5092535;28;20504;-78
2022/03/27 06:52:59;;;;;;;41.65;22.05;;;;;;;-141.50;100.00;63355.56;5112914;28;20063;-78
2022/03/27 06:55:27;;;;;;;39.95;21.90;;;;;;;-141.50;100.00;63355.56;5101497;28;20472;-79
2022/03/27 06:57:54;;;;;;;42.20;21.98;;;;;;;-141.50;100.00;63355.56;5100698;28;20272;-78
2022/03/27 07:03:06;;;;;;;44.08;23.08;;;;;;;-141.50;100.00;63355.56;5091147;28;20342;-79
2022/03/27 07:05:36;;;;;;;38.88;22.23;;;;;;;-141.50;100.00;63355.56;5074184;28;20464;-79
2022/03/27 07:08:08;;;;;;;44.15;22.02;;;;;;;-141.50;100.00;63355.56;5099082;28;20142;-83
2022/03/27 07:10:37;;;;;;;38.58;20.27;;;;;;;-141.50;100.00;63355.56;5107190;28;20052;-80
2022/03/27 07:13:05;;;;;;;37.47;20.40;;;;;;;-141.50;100.00;63355.56;5101439;28;20056;-81
2022/03/27 07:15:32;;;;;;;35.97;20.02;;;;;;;-141.50;100.00;63355.56;5114612;28;20040;-77
2022/03/27 07:17:59;;;;;;;34.78;18.52;;;;;;;-141.50;100.00;63355.56;5077739;28;20090;-79
2022/03/27 07:20:30;;;;;;;36.85;19.33;;;;;;;-141.50;100.00;63355.56;5086921;28;20051;-80
2022/03/27 07:23:03;;;;;;;34.92;18.40;;;;;;;-141.50;100.00;63355.56;5087872;28;20134;-79
2022/03/27 07:25:34;;;;;;;36.47;18.90;;;;;;;-141.50;100.00;63355.56;5085358;28;20518;-78
2022/03/27 07:28:02;;;;;;;28.23;15.85;;;;;;;-141.50;100.00;63355.56;5088333;28;20152;-79
2022/03/27 07:30:30;;;;;;;23.35;12.95;;;;;;;-141.50;100.00;63355.56;5081513;28;20081;-79
2022/03/27 07:32:57;;;;;;;18.65;10.32;;;;;;;-141.50;100.00;63355.56;5086163;28;20052;-79
2022/03/27 07:35:26;;;;;;;21.08;12.05;;;;;;;-141.50;100.00;63355.56;5082868;28;20055;-78
2022/03/27 07:37:53;;;;;;;15.60;8.32;;;;;;;-141.50;100.00;63355.56;5087317;28;20466;-78
2022/03/27 07:40:20;;;;;;;17.83;10.95;;;;;;;-141.50;100.00;63355.56;5088361;28;20050;-80
2022/03/27 07:42:50;;;;;;;10.05;5.50;;;;;;;-141.50;100.00;63355.56;5085638;28;20047;-79
2022/03/27 07:45:19;;;;;;;9.43;5.05;;;;;;;-141.50;100.00;63355.56;5085324;28;20044;-79
2022/03/27 07:47:47;;;;;;;8.27;4.15;;;;;;;-141.50;100.00;63355.56;5079822;28;20418;-79
2022/03/27 07:50:15;;;;;;;9.77;4.93;;;;;;;-141.50;100.00;63355.56;5088322;28;20079;-79
2022/03/27 07:52:42;;;;;;;8.25;4.32;;;;;;;-141.50;100.00;63355.56;5085739;28;20240;-78
2022/03/27 07:55:09;;;;;;;11.90;4.70;;;;;;;-141.50;100.00;63355.56;5086124;28;20074;-79
2022/03/27 07:57:36;;;;;;;11.18;5.57;;;;;;;-141.50;100.00;63355.56;5078143;28;20063;-80
2022/03/27 08:00:04;;;;;;;8.07;4.50;;;;;;;-141.50;100.00;63355.56;5093185;28;20080;-80
2022/03/27 08:02:33;;;;;;;8.75;3.42;;;;;;;-141.50;100.00;63355.56;5082285;28;20129;-78
2022/03/27 08:05:11;;;;;;;7.80;4.10;;;;;;;-141.50;100.00;63355.56;5085566;28;20412;-77
2022/03/27 08:07:37;;;;;;;10.73;5.03;;;;;;;-141.50;100.00;63355.56;5088312;28;20059;-78
2022/03/27 08:10:05;;;;;;;11.30;4.35;;;;;;;-141.50;100.00;63355.56;5070577;28;20121;-79
2022/03/27 08:12:32;;;;;;;7.57;4.72;;;;;;;-141.50;100.00;63355.56;5086610;28;20048;-79
2022/03/27 08:14:59;;;;;;;10.70;4.65;;;;;;;-141.50;100.00;63355.56;5095155;28;20051;-77
2022/03/27 08:17:26;;;;;;;11.15;4.75;;;;;;;-141.50;100.00;63355.56;5083977;28;20055;-78
2022/03/27 08:19:53;;;;;;;9.82;5.18;;;;;;;-141.50;100.00;63355.56;5088440;28;20098;-78
2022/03/27 08:22:20;;;;;;;9.63;5.07;;;;;;;-141.50;100.00;63355.56;5085131;28;20056;-78
2022/03/27 08:24:47;;;;;;;9.90;5.40;;;;;;;-141.50;100.00;63355.56;5086010;28;20048;-76
2022/03/27 08:27:14;;;;;;;7.95;4.88;;;;;;;-141.50;100.00;63355.56;5085227;28;20058;-78
2022/03/27 08:29:46;;;;;;;13.68;6.00;;;;;;;-141.50;100.00;63355.56;5085148;28;20085;-77
2022/03/27 08:32:14;;;;;;;11.20;5.80;;;;;;;-141.50;100.00;63355.56;5088688;28;20499;-78
2022/03/27 08:34:43;;;;;;;8.82;5.38;;;;;;;-141.50;100.00;63355.56;5085945;28;20083;-79
2022/03/27 08:37:13;;;;;;;8.07;5.22;;;;;;;-141.50;100.00;63355.56;5084211;28;20101;-76
2022/03/27 08:39:41;;;;;;;10.73;5.38;;;;;;;-141.50;100.00;63355.56;5085815;28;20109;-79
2022/03/27 08:42:07;;;;;;;5.97;3.60;;;;;;;-141.50;100.00;63355.56;5068887;28;20169;-79
2022/03/27 08:44:37;;;;;;;7.22;4.15;;;;;;;-141.50;100.00;63355.56;5082295;28;20139;-78
2022/03/27 08:47:13;;;;;;;7.32;2.70;;;;;;;-141.50;100.00;63355.56;5084174;28;20058;-79
2022/03/27 08:49:58;;;;;;;4.32;2.75;;;;;;;-141.50;100.00;63355.56;5080094;28;20475;-76
2022/03/27 08:52:46;;;;;;;6.93;2.45;;;;;;;-141.50;100.00;63355.56;5084894;28;20160;-77
2022/03/27 08:55:18;;;;;;;4.13;2.10;;;;;;;-141.50;100.00;63355.56;5084347;28;20068;-76
2022/03/27 08:57:51;;;;;;;5.72;1.70;;;;;;;-141.50;100.00;63355.56;5087719;28;20341;-77
2022/03/27 09:00:28;;;;;;;4.00;2.10;;;;;;;-141.50;100.00;63355.56;5087613;28;20404;-78
2022/03/27 09:02:56;;;;;;;4.97;2.80;;;;;;;-141.50;100.00;63355.56;5106531;28;20061;-79
2022/03/27 09:05:23;;;;;;;6.82;3.13;;;;;;;-141.50;100.00;63355.56;5106154;28;20205;-76
2022/03/27 09:07:52;;;;;;;3.35;2.00;;;;;;;-141.50;100.00;63355.56;5068314;28;20051;-77
2022/03/27 09:10:19;;;;;;;2.58;1.85;;;;;;;-141.50;100.00;63355.56;5065863;28;20052;-78
2022/03/27 09:12:46;;;;;;;3.42;2.40;;;;;;;-141.50;100.00;63355.56;5083304;28;20475;-78
2022/03/27 09:15:17;;;;;;;4.90;2.95;;;;;;;-141.50;100.00;63355.56;5094053;28;20135;-78
2022/03/27 09:18:04;;;;;;;6.30;3.38;;;;;;;-141.50;100.00;63355.56;5116369;28;20139;-77
2022/03/27 09:20:46;;;;;;;4.80;2.60;;;;;;;-141.50;100.00;63355.56;5100360;28;20105;-77
2022/03/27 09:23:12;;;;;;;5.93;2.83;;;;;;;-141.50;100.00;63355.56;5102461;28;20119;-79
2022/03/27 09:25:47;;;;;;;5.50;2.97;;;;;;;-141.50;100.00;63355.56;5106914;28;20032;-79
2022/03/27 09:28:34;;;;;;;5.93;3.80;;;;;;;-141.50;100.00;63355.56;5100215;28;20047;-76
2022/03/27 09:31:05;;;;;;;8.10;3.85;;;;;;;-141.50;100.00;63355.56;5082484;28;20080;-77
2022/03/27 09:33:46;;;;;;;6.95;3.70;;;;;;;-141.50;100.00;63355.56;5066491;28;20048;-76
2022/03/27 09:36:20;;;;;;;5.53;3.08;;;;;;;-141.50;100.00;63355.56;5084078;28;20113;-79
2022/03/27 09:39:00;;;;;;;7.97;4.88;;;;;;;-141.50;100.00;63355.56;5084386;28;20117;-76
2022/03/27 09:41:32;;;;;;;7.25;3.75;;;;;;;-141.50;100.00;63355.56;5083882;28;20083;-77
2022/03/27 09:44:01;;;;;;;6.28;4.13;;;;;;;-141.50;100.00;63355.56;5083543;28;20472;-76
2022/03/27 09:46:47;;;;;;;6.88;4.20;;;;;;;-141.50;100.00;63355.56;5084192;28;20056;-79
2022/03/27 09:49:14;;;;;;;;;;;;;;;-141.50;100.00;63355.56;5086991;28;20134;-78
2022/03/27 09:51:59;;;;;;;6.88;3.40;;;;;;;-141.50;100.00;63355.56;5117024;28;19974;-77
2022/03/27 09:54:28;;;;;;;10.02;3.47;;;;;;;-141.50;100.00;63355.56;5096920;28;20215;-78
2022/03/27 09:56:55;;;;;;;5.80;3.10;;;;;;;-141.50;100.00;63355.56;5107941;28;20059;-80
2022/03/27 09:59:34;;;;;;;4.75;2.97;;;;;;;-141.50;100.00;63355.56;5092369;28;20047;-78
2022/03/27 10:02:19;;;;;;;3.35;2.28;;;;;;;-141.50;100.00;63355.56;5082061;28;20079;-78
2022/03/27 10:04:59;;;;;;;5.07;2.22;;;;;;;-141.50;100.00;63355.56;5064393;28;20044;-77
2022/03/27 10:07:27;;;;;;;3.35;2.17;;;;;;;-141.50;100.00;63355.56;5081425;28;20060;-77
2022/03/27 10:09:55;;;;;;;2.78;1.77;;;;;;;-141.50;100.00;63355.56;5084735;28;20086;-77
2022/03/27 10:12:27;;;;;;;3.40;1.75;;;;;;;-141.50;100.00;63355.56;5065590;28;20060;-77
2022/03/27 10:14:57;;;;;;;3.72;1.70;;;;;;;-141.50;100.00;63355.56;5078687;28;20061;-78
2022/03/27 10:17:27;;;;;;;4.22;2.50;;;;;;;-141.50;100.00;63355.56;5065984;28;20512;-77
2022/03/27 10:19:59;;;;;;;4.50;2.65;;;;;;;-141.50;100.00;63355.56;5083354;28;20138;-78
2022/03/27 10:22:28;;;;;;;3.92;2.47;;;;;;;-141.50;100.00;63355.56;5087357;28;20489;-77
2022/03/27 10:25:00;;;;;;;6.03;3.03;;;;;;;-141.50;100.00;63355.56;5088464;28;20381;-77
2022/03/27 10:27:29;;;;;;;4.75;2.50;;;;;;;-141.50;100.00;63355.56;5088125;28;20055;-77
2022/03/27 10:29:57;;;;;;;3.22;1.83;;;;;;;-141.50;100.00;63355.56;5090206;28;20484;-79
2022/03/27 10:32:24;;;;;;;3.88;2.17;;;;;;;-141.50;100.00;63355.56;5089243;28;20138;-76
2022/03/27 10:34:59;;;;;;;6.03;1.98;;;;;;;-141.50;100.00;63355.56;5089019;28;20052;-79
2022/03/27 10:37:28;;;;;;;5.43;2.00;;;;;;;-141.50;100.00;63355.56;5091627;28;20079;-78
2022/03/27 10:40:21;;;;;;;3.28;1.85;;;;;;;-141.50;100.00;63355.56;5094221;28;20533;-77
2022/03/27 10:42:59;;;;;;;4.40;2.33;;;;;;;-141.50;100.00;63355.56;5087104;28;20106;-79
2022/03/27 10:45:26;;;;;;;4.35;2.75;;;;;;;-141.50;100.00;63355.56;5086963;28;20114;-77
2022/03/27 10:48:34;;;;;;;4.45;2.60;;;;;;;-141.50;100.00;63355.56;5087790;28;20109;-79
2022/03/27 10:51:01;;;;;;;4.18;1.58;;;;;;;-141.50;100.00;63355.56;5037587;28;20076;-78
2022/03/27 10:53:28;;;;;;;5.45;2.05;;;;;;;-141.50;100.00;63355.56;5068808;28;20106;-77
2022/03/27 10:55:56;;;;;;;4.07;1.60;;;;;;;-141.50;100.00;63355.56;5071413;28;20506;-78
2022/03/27 10:58:29;;;;;;;4.53;2.20;;;;;;;-141.50;100.00;63355.56;5087172;28;20051;-78
2022/03/27 11:00:59;;;;;;;5.82;1.92;;;;;;;-141.50;100.00;63355.56;5087273;28;20059;-78
2022/03/27 11:03:46;;;;;;;4.57;2.35;;;;;;;-141.50;100.00;63355.56;5090635;28;20059;-78
2022/03/27 11:06:23;;;;;;;;;;;;;;;-141.50;100.00;63355.56;5108310;28;20069;-76
2022/03/27 11:08:50;;;;;;;2.33;1.80;;;;;;;-141.50;100.00;63355.56;5094132;28;19955;-77
2022/03/27 11:11:36;;;;;;;3.30;2.10;;;;;;;-141.50;100.00;63355.56;5087251;28;20116;-78